WetterOnline ( http://www.wetteronline.de )

Wetter aktuell Lichtenhain/Mittelndorf

Aktuelles Wetter: Lichtenhain/Mittelndorf (352m)

6-stündlich | Neueste Meldungen
Ortszeit Temperatur Wetter
So, 18.11. 7:00 -5.6° C wolkenlos
So, 18.11. 1:00 -2.1° C wolkenlos
Sa, 17.11. 19:00 0.2° C wolkig
Sa, 17.11. 13:00 5.1° C wolkenlos
Sa, 17.11. 7:00 -1.1° C fast wolkenlos
Sa, 17.11. 1:00 1.9° C wolkenlos
Fr, 16.11. 19:00 3.9° C bewölkt
Fr, 16.11. 13:00 7.9° C wolkenlos
Ortszeit Temperatur Wetter
So, 18.11. 11:00 -0.9° C wolkenlos
So, 18.11. 10:50 -0.9° C wolkenlos
So, 18.11. 10:40 -1.5° C fast wolkenlos
So, 18.11. 10:30 -1.7° C wolkig
So, 18.11. 10:20 -1.7° C wolkig
So, 18.11. 10:10 -2.3° C bedeckt
So, 18.11. 10:00 -2.8° C wolkig
So, 18.11. 9:30 -3.4° C leicht bewölkt
So, 18.11. 9:00 -4.4° C wolkenlos
So, 18.11. 8:30 -5.8° C fast wolkenlos
So, 18.11. 8:00 -5.6° C leicht bewölkt
Ortszeit Relative Feuchte Sichtweite
So, 18.11. 7:00 96% 1.7 km
So, 18.11. 1:00 77% 7 km
Sa, 17.11. 19:00 68% 13 km
Sa, 17.11. 13:00 63% 9 km
Sa, 17.11. 7:00 94% 3.9 km
Sa, 17.11. 1:00 79% 12 km
Fr, 16.11. 19:00 80% 15 km
Fr, 16.11. 13:00 59% 25 km
Ortszeit Relative Feuchte Sichtweite
So, 18.11. 11:00 76% 6 km
So, 18.11. 10:50 76% -
So, 18.11. 10:40 78% -
So, 18.11. 10:30 78% 6 km
So, 18.11. 10:20 78% -
So, 18.11. 10:10 81% -
So, 18.11. 10:00 82% 5.0 km
So, 18.11. 9:30 87% 4.5 km
So, 18.11. 9:00 89% 3.7 km
So, 18.11. 8:30 93% 3.1 km
So, 18.11. 8:00 92% 4.2 km
Ortszeit Niederschlagsmenge Niederschlagsart
So, 18.11. 7:00 0.0 l/m2 in 12 Std. -
So, 18.11. 1:00 0.0 l/m2 in 6 Std. -
Sa, 17.11. 19:00 0.0 l/m2 in 12 Std. -
Sa, 17.11. 13:00 0.0 l/m2 in 6 Std. -
Sa, 17.11. 7:00 0.0 l/m2 in 12 Std. -
Sa, 17.11. 1:00 0.0 l/m2 in 6 Std. -
Fr, 16.11. 19:00 0.0 l/m2 in 12 Std. -
Fr, 16.11. 13:00 0.0 l/m2 in 6 Std. -
Ortszeit Niederschlagsmenge Niederschlagsart
So, 18.11. 11:00 0.0 l/m2 in 1 Std. -
So, 18.11. 10:50 keine Meldung -
So, 18.11. 10:40 keine Meldung -
So, 18.11. 10:30 0.0 l/m2 in 1 Std. -
So, 18.11. 10:20 keine Meldung -
So, 18.11. 10:10 keine Meldung -
So, 18.11. 10:00 0.0 l/m2 in 1 Std. -
So, 18.11. 9:30 0.0 l/m2 in 1 Std. -
So, 18.11. 9:00 0.0 l/m2 in 1 Std. -
So, 18.11. 8:30 0.0 l/m2 in 1 Std. -
So, 18.11. 8:00 0.0 l/m2 in 1 Std. -
Ortszeit Stärke Spitze Richtung
km/h Bft. km/h Grad Sektor
So, 18.11. 7:00 7 2 11 210° SW
So, 18.11. 1:00 7 2 22 30° NO
Sa, 17.11. 19:00 13 3 30 90° O
Sa, 17.11. 13:00 18 3 22 50° NO
Sa, 17.11. 7:00 7 2 18 100° O
Sa, 17.11. 1:00 11 2 25 90° O
Fr, 16.11. 19:00 11 2 22 80° O
Fr, 16.11. 13:00 13 3 24 170° S
Ortszeit Stärke Spitze Richtung
km/h Bft. km/h Grad Sektor
So, 18.11. 11:00 4 1 11 280° W
So, 18.11. 10:50 4 1 - 280° W
So, 18.11. 10:40 6 1 - 290° W
So, 18.11. 10:30 6 1 7 260° W
So, 18.11. 10:20 6 1 - 260° W
So, 18.11. 10:10 6 1 - 290° W
So, 18.11. 10:00 4 1 7 310° NW
So, 18.11. 9:30 4 1 7 220° SW
So, 18.11. 9:00 6 1 11 270° W
So, 18.11. 8:30 6 1 11 240° SW
So, 18.11. 8:00 7 2 11 260° W
Ortszeit Untergrenze Bedeckung Gattung
total tief tief mittel hoch
So, 18.11. 7:00 - 0/8 0/8 - - -
So, 18.11. 1:00 - 0/8 0/8 - - -
Sa, 17.11. 19:00 8100 m 8/8 0/8 - - -
Sa, 17.11. 13:00 - 0/8 0/8 - - -
Sa, 17.11. 7:00 2700 m 1/8 1/8 - - -
Sa, 17.11. 1:00 - 0/8 0/8 - - -
Fr, 16.11. 19:00 960 m 7/8 7/8 - - -
Fr, 16.11. 13:00 - 0/8 0/8 - - -
Ortszeit Bedeckungsgrad in Achtel und Wolkenuntergrenze
So, 18.11. 11:00 keine Wolken
So, 18.11. 10:50 keine Wolken
So, 18.11. 10:40 1(6300m)
So, 18.11. 10:30 2(6000m) 5(6300m) 6(6900m)
So, 18.11. 10:20 2(6000m) 5(6300m) 6(6900m)
So, 18.11. 10:10 4(5700m) 4(6600m) 8(6900m)
So, 18.11. 10:00 3(5700m) 5(6300m) 6(6900m)
So, 18.11. 9:30 3(7200m) 5(7200m)
So, 18.11. 9:00 keine Wolken
So, 18.11. 8:30 1(7800m)
So, 18.11. 8:00 3(8100m) 4(8400m)
Ortszeit Luftdruck NN (hPa) Tendenz (hPa in 3 Std.)
So, 18.11. 7:00 1033 - 0,7
So, 18.11. 1:00 1035 - 0,7
Sa, 17.11. 19:00 1036 - 0,1
Sa, 17.11. 13:00 1036 - 0,3
Sa, 17.11. 7:00 1036 - 0,3
Sa, 17.11. 1:00 1036 + 0,3
Fr, 16.11. 19:00 1035 + 0,9
Fr, 16.11. 13:00 1034 - 0,4
Ortszeit Luftdruck NN (hPa) Tendenz (hPa in 3 Std.)
So, 18.11. 11:00 1032 - 0,5
So, 18.11. 10:50 1032 keine Meldung
So, 18.11. 10:40 1032 keine Meldung
So, 18.11. 10:30 1031 - 1,1
So, 18.11. 10:20 1031 keine Meldung
So, 18.11. 10:10 1032 keine Meldung
So, 18.11. 10:00 1032 - 1,1
So, 18.11. 9:30 1032 - 0,9
So, 18.11. 9:00 1032 - 0,8
So, 18.11. 8:30 1033 - 0,6
So, 18.11. 8:00 1033 - 1,0
Ortszeit Schneehöhe (cm)
So, 18.11. 7:00 0
So, 18.11. 1:00 0
Sa, 17.11. 19:00 0
Sa, 17.11. 13:00 0
Sa, 17.11. 7:00 0
Sa, 17.11. 1:00 0
Fr, 16.11. 19:00 0
Fr, 16.11. 13:00 0
Ortszeit Schneehöhe (cm)
So, 18.11. 11:00 0
So, 18.11. 10:50 0
So, 18.11. 10:40 0
So, 18.11. 10:30 0
So, 18.11. 10:20 0
So, 18.11. 10:10 0
So, 18.11. 10:00 0
So, 18.11. 9:30 0
So, 18.11. 9:00 0
So, 18.11. 8:30 0
So, 18.11. 8:00 0
Link zu dieser Seite / Seite empfehlen

Das Wetter in ...